Club Med II — FNIR — position and weather

sailwx.info

Track history (hours):
 
Tides and Currents Weather Stations Pressure Air Temp Water Temp Dewpoint Dewpoint Depression Visibility Wind Speed Wind Dir Waves Ship Positions

Club Med II

Operator: V.Ships Leisure S.A.M

Last reported at 2018-Jan-06 07:21 UTC. Time now 2018-Jan-20 09:22 UTC.
Position N 14°05' W 061°02'.
Warning: this ship's position is 14 days out of date.

Length 187 m; draft 5.2 m.

Type: Ship. MMSI: 227194000.

Date/timePositionNaut miles runAvg speedWind from/ knotsBaromVisibWave heightAir tempDewpointWater temp
2018-Jan-06 07:21N 14°05' W 061°02'411.8
2018-Jan-06 07:00N 14°09' W 061°03'714.0
2018-Jan-06 06:30N 14°15' W 061°06'713.5
2018-Jan-06 06:01N 14°21' W 061°09'611.2
2018-Jan-06 05:30N 14°27' W 061°10'4 8.7
2018-Jan-06 05:00N 14°31' W 061°08'3 6.5
2018-Jan-06 04:31N 14°34' W 061°07'4 7.0
2018-Jan-06 04:00N 14°35' W 061°04'1 1.4
2018-Jan-06 03:28N 14°36' W 061°04'0 0.0
2018-Jan-06 02:58N 14°36' W 061°04'0 0.0
2018-Jan-06 02:28N 14°36' W 061°04'0 0.0
2018-Jan-06 01:58N 14°36' W 061°04'0 0.0
2018-Jan-06 01:28N 14°36' W 061°04'0 0.0
2018-Jan-05 12:22N 14°36' W 061°04'0 0.4
2018-Jan-05 12:00N 14°36' W 061°04'610.3
2018-Jan-05 11:25N 14°31' W 061°07'613.8
2018-Jan-05 11:00N 14°26' W 061°10'914.7
2018-Jan-05 10:22N 14°17' W 061°12'  
2017-Dec-31 11:08N 14°05' W 060°58'211.5
2017-Dec-31 10:58N 14°07' W 060°60'613.9
2017-Dec-31 10:31N 14°12' W 061°04'612.6
2017-Dec-31 10:01N 14°16' W 061°08'510.3
2017-Dec-31 09:30N 14°21' W 061°11'8 8.4
2017-Dec-31 08:34N 14°27' W 061°16'3 8.6
2017-Dec-31 08:14N 14°29' W 061°17'2 8.7
2017-Dec-31 08:00N 14°31' W 061°19'4 8.1
2017-Dec-31 07:30N 14°34' W 061°21'4 8.2
2017-Dec-31 07:00N 14°38' W 061°22'38 9.1
2017-Dec-31 02:47N 15°14' W 061°38'5 8.8
2017-Dec-31 02:11N 15°19' W 061°39'2 9.3
2017-Dec-31 02:01N 15°20' W 061°40'4 8.4
2017-Dec-31 01:30N 15°24' W 061°41'4 8.0
2017-Dec-31 00:57N 15°29' W 061°42'12 7.7
2017-Dec-30 23:23N 15°36' W 061°32'411.1
2017-Dec-30 23:00N 15°40' W 061°35'713.5
2017-Dec-30 22:27N 15°46' W 061°39'5 9.9
2017-Dec-30 22:00N 15°51' W 061°40'6 0.5
2017-Dec-30 10:23N 15°56' W 061°43'410.1
2017-Dec-30 10:00N 15°59' W 061°46'11 7.3
2017-Dec-30 08:27N 16°05' W 061°56'3 5.2
2017-Dec-30 07:56N 16°08' W 061°56'3 6.2
2017-Dec-30 07:30N 16°08' W 061°53'15 7.7
2017-Dec-30 05:32N 15°56' W 061°43'011.9
2017-Dec-30 05:30N 15°56' W 061°43'20 8.9
2017-Dec-30 03:16N 16°13' W 061°32'1 0.1
2017-Dec-29 12:27N 16°14' W 061°32'0 0.0
2017-Dec-29 12:00N 16°14' W 061°32'1 1.6
2017-Dec-29 11:30N 16°13' W 061°32'5 9.0
2017-Dec-29 11:00N 16°09' W 061°30'13 8.7
2017-Dec-29 09:28N 15°57' W 061°35'7 8.0
2017-Dec-29 08:34N 15°56' W 061°43'1 7.8
2017-Dec-29 08:28N 15°56' W 061°43'4 8.0
2017-Dec-29 08:00N 15°58' W 061°47'11 8.4
2017-Dec-29 06:40N 16°05' W 061°56'3 9.3
2017-Dec-29 06:20N 16°07' W 061°58'3 9.1
2017-Dec-29 06:00N 16°09' W 062°00'5 8.9
2017-Dec-29 05:30N 16°12' W 062°04'4 8.8
2017-Dec-29 05:00N 16°16' W 062°07'4 8.8
2017-Dec-29 04:30N 16°19' W 062°10'4 8.4
2017-Dec-29 04:00N 16°22' W 062°12'4 7.6
2017-Dec-29 03:30N 16°26' W 062°12'4 7.8
2017-Dec-29 03:00N 16°30' W 062°11'4 7.8
2017-Dec-29 02:30N 16°34' W 062°10'4 7.9
2017-Dec-29 02:00N 16°37' W 062°07'4 8.1
2017-Dec-29 01:30N 16°40' W 062°05'4 7.8
2017-Dec-29 01:00N 16°44' W 062°03'4 7.9
2017-Dec-29 00:30N 16°47' W 062°00'4 8.2
2017-Dec-29 00:00N 16°50' W 061°57'5 9.2
2017-Dec-28 23:30N 16°52' W 061°53'5 9.6
2017-Dec-28 23:00N 16°55' W 061°49'4 8.5
2017-Dec-28 22:30N 16°59' W 061°47'1 2.8
2017-Dec-28 21:59N 17°00' W 061°47'0 0.1
2017-Dec-28 21:29N 17°00' W 061°47'0 0.1
2017-Dec-28 20:59N 17°00' W 061°47'0 0.1
2017-Dec-28 20:29N 17°00' W 061°47'0 0.0
2017-Dec-28 19:59N 17°00' W 061°47'0 0.0
2017-Dec-28 19:29N 17°00' W 061°47'0 0.0
2017-Dec-28 18:59N 17°00' W 061°47'0 0.1
2017-Dec-28 18:29N 17°00' W 061°47'0 0.1
2017-Dec-28 17:59N 17°00' W 061°47'0 0.0
2017-Dec-28 17:29N 17°00' W 061°47'0 0.0
2017-Dec-28 16:59N 17°00' W 061°47'0 0.0
2017-Dec-28 16:29N 17°00' W 061°47'93 2.9
2017-Dec-27 08:24N 15°29' W 061°35'4 7.1
2017-Dec-27 07:51N 15°25' W 061°34'  
Track history (hours):
 
Tides and Currents Weather Stations Pressure Air Temp Water Temp Dewpoint Dewpoint Depression Visibility Wind Speed Wind Dir Waves Ship Positions

Club Med II

Operator: V.Ships Leisure S.A.M

Last reported at 2018-Jan-06 07:21 UTC. Time now 2018-Jan-20 09:22 UTC.
Position N 14°05' W 061°02'.
Warning: this ship's position is 14 days out of date.

Length 187 m; draft 5.2 m.

Type: Ship. MMSI: 227194000.

Date/timePositionNaut miles runAvg speedWind from/ knotsBaromVisibWave heightAir tempDewpointWater temp
2018-Jan-06 07:21N 14°05' W 061°02'411.8
2018-Jan-06 07:00N 14°09' W 061°03'714.0
2018-Jan-06 06:30N 14°15' W 061°06'713.5
2018-Jan-06 06:01N 14°21' W 061°09'611.2
2018-Jan-06 05:30N 14°27' W 061°10'4 8.7
2018-Jan-06 05:00N 14°31' W 061°08'3 6.5
2018-Jan-06 04:31N 14°34' W 061°07'4 7.0
2018-Jan-06 04:00N 14°35' W 061°04'1 1.4
2018-Jan-06 03:28N 14°36' W 061°04'0 0.0
2018-Jan-06 02:58N 14°36' W 061°04'0 0.0
2018-Jan-06 02:28N 14°36' W 061°04'0 0.0
2018-Jan-06 01:58N 14°36' W 061°04'0 0.0
2018-Jan-06 01:28N 14°36' W 061°04'0 0.0
2018-Jan-05 12:22N 14°36' W 061°04'0 0.4
2018-Jan-05 12:00N 14°36' W 061°04'610.3
2018-Jan-05 11:25N 14°31' W 061°07'613.8
2018-Jan-05 11:00N 14°26' W 061°10'914.7
2018-Jan-05 10:22N 14°17' W 061°12'  
2017-Dec-31 11:08N 14°05' W 060°58'211.5
2017-Dec-31 10:58N 14°07' W 060°60'613.9
2017-Dec-31 10:31N 14°12' W 061°04'612.6
2017-Dec-31 10:01N 14°16' W 061°08'510.3
2017-Dec-31 09:30N 14°21' W 061°11'8 8.4
2017-Dec-31 08:34N 14°27' W 061°16'3 8.6
2017-Dec-31 08:14N 14°29' W 061°17'2 8.7
2017-Dec-31 08:00N 14°31' W 061°19'4 8.1
2017-Dec-31 07:30N 14°34' W 061°21'4 8.2
2017-Dec-31 07:00N 14°38' W 061°22'38 9.1
2017-Dec-31 02:47N 15°14' W 061°38'5 8.8
2017-Dec-31 02:11N 15°19' W 061°39'2 9.3
2017-Dec-31 02:01N 15°20' W 061°40'4 8.4
2017-Dec-31 01:30N 15°24' W 061°41'4 8.0
2017-Dec-31 00:57N 15°29' W 061°42'12 7.7
2017-Dec-30 23:23N 15°36' W 061°32'411.1
2017-Dec-30 23:00N 15°40' W 061°35'713.5
2017-Dec-30 22:27N 15°46' W 061°39'5 9.9
2017-Dec-30 22:00N 15°51' W 061°40'6 0.5
2017-Dec-30 10:23N 15°56' W 061°43'410.1
2017-Dec-30 10:00N 15°59' W 061°46'11 7.3
2017-Dec-30 08:27N 16°05' W 061°56'3 5.2
2017-Dec-30 07:56N 16°08' W 061°56'3 6.2
2017-Dec-30 07:30N 16°08' W 061°53'15 7.7
2017-Dec-30 05:32N 15°56' W 061°43'011.9
2017-Dec-30 05:30N 15°56' W 061°43'20 8.9
2017-Dec-30 03:16N 16°13' W 061°32'1 0.1
2017-Dec-29 12:27N 16°14' W 061°32'0 0.0
2017-Dec-29 12:00N 16°14' W 061°32'1 1.6
2017-Dec-29 11:30N 16°13' W 061°32'5 9.0
2017-Dec-29 11:00N 16°09' W 061°30'13 8.7
2017-Dec-29 09:28N 15°57' W 061°35'7 8.0
2017-Dec-29 08:34N 15°56' W 061°43'1 7.8
2017-Dec-29 08:28N 15°56' W 061°43'4 8.0
2017-Dec-29 08:00N 15°58' W 061°47'11 8.4
2017-Dec-29 06:40N 16°05' W 061°56'3 9.3
2017-Dec-29 06:20N 16°07' W 061°58'3 9.1
2017-Dec-29 06:00N 16°09' W 062°00'5 8.9
2017-Dec-29 05:30N 16°12' W 062°04'4 8.8
2017-Dec-29 05:00N 16°16' W 062°07'4 8.8
2017-Dec-29 04:30N 16°19' W 062°10'4 8.4
2017-Dec-29 04:00N 16°22' W 062°12'4 7.6
2017-Dec-29 03:30N 16°26' W 062°12'4 7.8
2017-Dec-29 03:00N 16°30' W 062°11'4 7.8
2017-Dec-29 02:30N 16°34' W 062°10'4 7.9
2017-Dec-29 02:00N 16°37' W 062°07'4 8.1
2017-Dec-29 01:30N 16°40' W 062°05'4 7.8
2017-Dec-29 01:00N 16°44' W 062°03'4 7.9
2017-Dec-29 00:30N 16°47' W 062°00'4 8.2
2017-Dec-29 00:00N 16°50' W 061°57'5 9.2
2017-Dec-28 23:30N 16°52' W 061°53'5 9.6
2017-Dec-28 23:00N 16°55' W 061°49'4 8.5
2017-Dec-28 22:30N 16°59' W 061°47'1 2.8
2017-Dec-28 21:59N 17°00' W 061°47'0 0.1
2017-Dec-28 21:29N 17°00' W 061°47'0 0.1
2017-Dec-28 20:59N 17°00' W 061°47'0 0.1
2017-Dec-28 20:29N 17°00' W 061°47'0 0.0
2017-Dec-28 19:59N 17°00' W 061°47'0 0.0
2017-Dec-28 19:29N 17°00' W 061°47'0 0.0
2017-Dec-28 18:59N 17°00' W 061°47'0 0.1
2017-Dec-28 18:29N 17°00' W 061°47'0 0.1
2017-Dec-28 17:59N 17°00' W 061°47'0 0.0
2017-Dec-28 17:29N 17°00' W 061°47'0 0.0
2017-Dec-28 16:59N 17°00' W 061°47'0 0.0
2017-Dec-28 16:29N 17°00' W 061°47'93 2.9
2017-Dec-27 08:24N 15°29' W 061°35'4 7.1
2017-Dec-27 07:51N 15°25' W 061°34'  

Dump ship's entire track history